Du har inga inställningar för hoppväder.nu

Hoppväder.nu

Senast uppdaterat 14:25

UTC-tid

2021-12-07 kl. 13:25


Sol och måne

Solen går upp 8:43 och går ner 15:00 (beräknade cirkatider)
Nästa fullmåne blir om 12 dagar (2021-12-19)

METAR

ESOE (Örebro)
(65 minuter sedan)
ESOE 071220Z 03004KT 7000 -SN VV004 M13/M14 Q1017=



ESOK (Karlstad)
(35 minuter sedan)
ESOK 071250Z 05006KT 9999 BKN011 M12/M13 Q1016=



ESGR (Skövde)
(35 minuter sedan)
ESGR 071250Z AUTO VRB02KT 9999 OVC051/// M05/M07 Q1015=



ESSD (Borlänge)
(35 minuter sedan)
ESSD 071250Z 22002KT CAVOK M17/M19 Q1017=



ESOW (Västerås)
(35 minuter sedan)
ESOW 071250Z 04003KT CAVOK M13/M15 Q1018=



TAF

ESOE (Örebro)
(63 minuter sedan)
ESOE AMD 071222Z 0712/0721 VRB02KT 9999 SCT004 TEMPO 0712/0719 4000 -SN BKN004=



ESOK (Karlstad)
(115 minuter sedan)
ESOK 071130Z 0712/0716 07006KT 9999 FEW009 BKN040 PROB40 0712/0716 BKN009=



ESGR (Skövde)
ESGR



ESSD (Borlänge)
(115 minuter sedan)
ESSD 071130Z 0712/0717 VRB02KT CAVOK=



ESOW (Västerås)
(115 minuter sedan)
ESOW 071130Z 0712/0716 VRB02KT CAVOK=





Kodnycklar till TAF och METAR






LHP

(Örebro är område se32g i Delområde 4)

Översikt

ÖVERSIKT FÖR OMRÅDE se3 UTFÄRDAD 071247

GÄLLANDE DEN 7 DECEMBER 2021 MELLAN 13 OCH 21 UTC


Väderöversikt

Ostlig eller sydostlig luftström råder över sydligaste Sverige.

Sikt under 5 kilometer eller molnbas under 1000 fot
13-21UTC: I hela området


Måttlig eller svår isbildning
13-15UTC: Hela området utom se34
15-21UTC: I hela området


Måttlig eller svår turbulens
Väntas inte förekomma under perioden

Delområde 4

PROGNOS FÖR OMRÅDE se32 UTFÄRDAD 071247
GÄLLANDE DEN 7 DECEMBER 2021 MELLAN 13 OCH 21 UTC

Måttlig eller svår turbulens
13-21UTC: I hela området: Väntas inte förekomma under perioden

Måttlig eller svår isbildning
13-15UTC: Område se32a: Väntas inte förekomma under perioden

13-17UTC: Område se32d: måttlig isbildning 2500ft - FL070, måttlig isbildning 1000ft - FL070

13-21UTC: Område se32c,se32b,se32h,se32g,se32e,se32j,se32i: måttlig isbildning 2500ft - FL070
Område se32f: Väntas inte förekomma under perioden

15-21UTC: Område se32a: måttlig isbildning 2500ft - FL070

17-19UTC: Område se32d: måttlig isbildning 2500ft - FL070, måttlig isbildning 1000ft - FL075

19-21UTC: Område se32d: måttlig isbildning 2500ft - FL070, måttlig isbildning 1000ft - FL070


Sikt/Väder/Moln
13-19UTC: Område se32j: Sikt 1.5km - >8km i snöfall. Molnbas 1000ft - >2000ft.
Område se32c,se32b,se32h,se32i: Sikt >8km, lokalt 3km - 5km i snöfall. Molnbas >2000ft, lokalt 1500ft - 2000ft.

13-21UTC: Område se32d: Sikt 1.5km - >8km i snöfall. Molnbas <500ft - >2000ft.
Område se32a: Sikt 1.5km - >8km i snöbyar, snöfall. Molnbas 1000ft - >2000ft.
Område se32g,se32f,se32e: Sikt >8km, lokalt 3km - 5km i snöfall. Molnbas >2000ft, lokalt 1500ft - 2000ft.

19-21UTC: Område se32j: Sikt 1.5km - >8km i snöfall. Molnbas 500ft - >2000ft.
Område se32c: Sikt >8km, lokalt 3km - 5km i snöfall. Molnbas >2000ft, lokalt 1000ft - 1500ft.
Område se32b,se32h,se32i: Sikt 3km - >8km i snöfall. Molnbas 1000ft - >2000ft.


Molnöversida
13-21UTC: Område se32d,se32c,se32b,se32h,se32g,se32e,se32j,se32i: Molnöversida FL070.
Område se32f: Ingen prognos
Område se32a: Molnöversida FL080.


CB/TCU Moln
13-21UTC: Område se32a: TCU
Område se32d,se32c,se32b,se32h,se32g,se32f,se32e,se32j,se32i: Väntas inte förekomma under perioden


Nollgradersisoterm
13-21UTC: Noll grader SFC.

Vind vid marken
13-15UTC: Område se32i: O/1-11 knop, byar upp till 16 knop.
Område se32h: O/1-6 knop.
Område se32b: N/0-6 knop.
Område se32d: NO-O/0-5 knop.
Område se32c: NO/0-6 knop.
Område se32g: N-NO/0-4 knop.
Område se32e: V-NV/0-4 knop.
Område se32j: O-SO/0-11 knop, byar upp till 21 knop.
Område se32a: NV-N/1-9 knop, byar upp till 14 knop.

13-21UTC: Område se32f: Lugnt.

15-17UTC: Område se32h: O/1-9 knop, byar upp till 17 knop.
Område se32c: O/0-8 knop, byar upp till 12 knop.
Område se32b: NO-O/0-8 knop, byar upp till 11 knop.
Område se32i: O/1-14 knop, byar upp till 18 knop.
Område se32a: N/0-8 knop, byar upp till 13 knop.
Område se32j: O-SO/0-14 knop, byar upp till 23 knop.
Område se32g: NO-O/0-4 knop.

15-19UTC: Område se32d: O/0-8 knop, byar upp till 11 knop.
Område se32e: Lugnt.

17-19UTC: Område se32j: O-SO/0-17 knop, byar upp till 23 knop.
Område se32a: N-NO/0-7 knop, byar upp till 11 knop.
Område se32i: O/1-15 knop, byar upp till 19 knop.
Område se32c: O-SO/0-13 knop, byar upp till 17 knop.
Område se32b: NO-O/0-9 knop, byar upp till 12 knop.
Område se32h: O/0-12 knop, byar upp till 19 knop.

17-21UTC: Område se32g: O/0-5 knop.

19-21UTC: Område se32j: O-SO/0-14 knop, byar upp till 21 knop.
Område se32b: O/0-11 knop, byar upp till 16 knop.
Område se32h: O/1-14 knop, byar upp till 19 knop.
Område se32i: O/1-14 knop, byar upp till 20 knop.
Område se32c: O-SO/0-17 knop, byar upp till 22 knop.
Område se32a: N-NO/0-9 knop, byar upp till 13 knop.
Område se32e: NO-O/0-4 knop.
Område se32d: NO-O/0-8 knop, byar upp till 12 knop.


Genomsnittlig vind och temperatur för området
2000ft:
13-15UTC: 210/6kt -8.
15-17UTC: 170/7kt -8.
17-19UTC: 160/8kt -8.
19-21UTC: 160/10kt -6.

FL50:
13-15UTC: 260/7kt -12.
15-17UTC: 230/5kt -12.
17-19UTC: 200/7kt -12.
19-21UTC: 190/10kt -12.

FL100:
13-15UTC: 270/13kt -16.
15-17UTC: 250/14kt -15.
17-19UTC: 240/15kt -15.
19-21UTC: 220/17kt -15.

Lägsta QNH
1011 hPa.

OBS! endast utbredd måttlig eller svår isbildning och turbulens prognostiseras i LLF.
Avsaknad av isbildning och turbulens i prognosen utesluter inte förekomst av lätt isbildning och turbulens.
För indikation på lätt isbildning, var vänlig kontrollera om prognosen för molntopp ligger högre än nollgradersisotermen.
Förekomst av TCU eller CB medför alltid en risk för måttlig eller svår isbildning och turbulens även om det inte framgår explicit av prognosen.







Spotting

Hur fungerar spotthjälpen och Vindkartan?

Markvind är ca 0-2 m/s.
Vind på 600 m ca 3 m/s.
Vind på 1500 m ca 4 m/s.
Vind på 3000 m ca 7 m/s.
FXB flyger ca 29 m/s över marken på finalen.
Du driver ca 301 m bakåt i frifall. (401 m)
Lämplig spot är 1 sekunder eller 29 m efter gropen.
(4 s eller 117 m)
För små grupper eller ensamhoppare bör man vänta 5-7 sekunder mellan grupperna.
För större grupper bör man vänta 10-12 sekunder mellan grupperna.


Vindkartan

Senast uppdaterad 14:25




All data kommer från LFV.se